Terminal Aerodrome Forecast
Issued by NWS Wilmington, OH

Current Version | Previous Version | Graphics & Text | Print | Product List | Glossary On
Versions: 1 2 3 4 5 6 7 8 9 10 11 12 13 14 15 16 17 18 19 20 21 22
000
FTUS41 KILN 220200 AAA
TAFILN
TAF AMD
KILN 220245Z 2203/2224 23012KT P6SM SCT100
     FM220600 24010KT P6SM VCSH OVC050
     FM221000 25010KT 5SM -SHRA SCT025 OVC040
     FM221300 27014G21KT P6SM OVC035
     FM221600 27016G25KT P6SM BKN050
     FM222300 28013KT P6SM SCT050=

USA.gov is the U.S. government's official web portal to all federal, state and local government web resources and services.